createdAt,value
2019-01-20T04:02:06.604Z,93.50
2019-01-20T04:04:54.745Z,93.60
2019-01-20T04:07:42.663Z,93.60
2019-01-20T04:10:30.554Z,93.60
2019-01-20T04:13:18.474Z,93.50
2019-01-20T04:16:06.370Z,93.60
2019-01-20T04:18:54.305Z,93.60
2019-01-20T04:21:42.202Z,93.40
2019-01-20T04:24:30.123Z,93.40
2019-01-20T04:27:18.019Z,93.40
2019-01-20T04:30:06.255Z,93.50
2019-01-20T04:32:54.142Z,93.50
2019-01-20T04:35:42.057Z,93.60
2019-01-20T04:38:29.949Z,93.50
2019-01-20T04:41:17.875Z,93.40
2019-01-20T04:44:05.763Z,93.50
2019-01-20T04:46:53.693Z,93.30
2019-01-20T04:49:41.578Z,93.40
2019-01-20T04:52:29.505Z,93.50
2019-01-20T04:55:17.401Z,93.50
2019-01-20T05:01:00.257Z,93.60
2019-01-20T05:03:39.387Z,93.60
2019-01-20T05:06:27.305Z,93.60
2019-01-20T05:09:15.193Z,93.70
2019-01-20T05:12:03.137Z,93.70
2019-01-20T05:14:51.026Z,93.60
2019-01-20T05:17:38.990Z,93.60
2019-01-20T05:20:26.919Z,93.50
2019-01-20T05:23:14.835Z,93.60
2019-01-20T05:26:02.726Z,93.60
2019-01-20T05:28:50.645Z,93.70
2019-01-20T05:31:38.837Z,93.60
2019-01-20T05:34:26.749Z,93.70
2019-01-20T05:37:14.642Z,93.80
2019-01-20T05:40:02.557Z,93.80
2019-01-20T05:42:50.451Z,93.90
2019-01-20T05:45:38.386Z,93.80
2019-01-20T05:48:26.278Z,93.90
2019-01-20T05:51:14.203Z,93.70
2019-01-20T05:54:02.090Z,93.80
2019-01-20T05:56:50.009Z,93.70
2019-01-20T05:59:37.901Z,93.60
2019-01-20T06:02:25.837Z,93.70
2019-01-20T06:05:04.977Z,93.60
2019-01-20T06:07:52.886Z,93.60
2019-01-20T06:10:40.801Z,93.50
2019-01-20T06:13:28.694Z,93.40
2019-01-20T06:16:16.610Z,93.40
2019-01-20T06:19:04.498Z,93.30
2019-01-20T06:21:52.413Z,93.40
2019-01-20T06:24:40.302Z,93.40
2019-01-20T06:27:28.230Z,93.50
2019-01-20T06:30:17.457Z,93.40
2019-01-20T06:33:05.438Z,93.40
2019-01-20T06:35:53.337Z,93.30
2019-01-20T06:38:41.253Z,93.30
2019-01-20T06:41:29.145Z,93.50
2019-01-20T06:44:17.074Z,93.60
2019-01-20T06:47:04.968Z,93.50
2019-01-20T06:49:52.898Z,93.50
2019-01-20T06:52:40.896Z,93.50
2019-01-20T06:55:28.790Z,93.70
2019-01-20T06:58:16.681Z,93.60
2019-01-20T07:01:04.606Z,93.40
2019-01-20T07:03:52.493Z,93.50
2019-01-20T07:06:31.517Z,93.50
2019-01-20T07:09:19.406Z,93.50
2019-01-20T07:11:48.111Z,93.50
2019-01-20T07:14:36.002Z,93.50
2019-01-20T07:17:23.926Z,93.60
2019-01-20T07:20:11.846Z,93.50
2019-01-20T07:22:59.766Z,93.70
2019-01-20T07:25:47.661Z,93.50
2019-01-20T07:28:35.657Z,93.50
2019-01-20T07:31:23.831Z,93.70
2019-01-20T07:34:11.753Z,93.70
2019-01-20T07:36:59.701Z,93.60
2019-01-20T07:39:47.877Z,93.50
2019-01-20T07:42:35.833Z,93.50
2019-01-20T07:45:24.072Z,93.50
2019-01-20T07:48:12.010Z,93.60
2019-01-20T07:50:59.936Z,93.50
2019-01-20T07:53:38.754Z,93.50
2019-01-20T07:56:26.925Z,93.50
2019-01-20T07:59:14.810Z,93.40
2019-01-20T08:02:02.721Z,93.40
2019-01-20T08:04:50.609Z,93.20
2019-01-20T08:07:38.524Z,93.30
2019-01-20T08:10:27.441Z,93.30
2019-01-20T08:13:15.618Z,93.10
2019-01-20T08:16:03.581Z,93.10
2019-01-20T08:18:51.498Z,93.00
2019-01-20T08:21:39.391Z,93.00
2019-01-20T08:24:27.317Z,93.20
2019-01-20T08:27:15.210Z,93.20
2019-01-20T08:30:03.130Z,93.10
2019-01-20T08:32:51.029Z,93.10
2019-01-20T08:38:33.221Z,93.10
2019-01-20T08:41:21.154Z,92.90
2019-01-20T08:44:09.950Z,92.80
2019-01-20T08:47:17.177Z,92.50
2019-01-20T08:50:07.737Z,92.40
2019-01-20T08:52:55.953Z,92.40
2019-01-20T08:55:36.338Z,92.50
2019-01-20T08:58:14.840Z,92.40
2019-01-20T09:01:02.762Z,92.50
2019-01-20T09:03:50.674Z,92.30
2019-01-20T09:06:38.722Z,92.30
2019-01-20T09:09:26.654Z,92.30
2019-01-20T09:12:14.538Z,92.30
2019-01-20T09:15:02.476Z,92.40
2019-01-20T09:17:50.625Z,92.30
2019-01-20T09:20:38.858Z,92.70
2019-01-20T09:26:55.205Z,92.60
2019-01-20T09:29:43.193Z,92.50
2019-01-20T09:32:31.121Z,92.50
2019-01-20T09:35:19.013Z,92.30
2019-01-20T09:38:06.942Z,92.20
2019-01-20T09:40:54.846Z,92.10
2019-01-20T09:43:47.139Z,91.80
2019-01-20T09:46:32.402Z,91.70
2019-01-20T09:49:20.376Z,91.80
2019-01-20T09:52:08.261Z,92.00
2019-01-20T09:54:56.186Z,92.00
2019-01-20T09:57:36.842Z,92.20
2019-01-20T10:00:16.133Z,91.90
2019-01-20T10:03:04.026Z,92.00
2019-01-20T10:05:51.937Z,92.00
2019-01-20T10:08:39.830Z,91.90
2019-01-20T10:11:27.745Z,92.20
2019-01-20T10:14:15.638Z,92.50
2019-01-20T10:17:03.659Z,92.30
2019-01-20T10:19:51.548Z,92.10
2019-01-20T10:22:39.461Z,92.20
2019-01-20T10:25:27.375Z,92.20
2019-01-20T10:28:16.825Z,92.50
2019-01-20T10:31:05.980Z,92.30
2019-01-20T10:33:54.350Z,92.10
2019-01-20T10:36:42.245Z,92.30
2019-01-20T10:39:30.161Z,92.20
2019-01-20T10:42:18.486Z,92.50
2019-01-20T10:45:06.798Z,92.40
2019-01-20T10:47:54.690Z,92.30
2019-01-20T10:50:42.685Z,92.40
2019-01-20T10:53:30.588Z,92.30
2019-01-20T10:56:18.489Z,92.40
2019-01-20T10:58:57.216Z,92.40
2019-01-20T11:01:45.144Z,92.40
2019-01-20T11:04:33.090Z,92.30
2019-01-20T11:07:21.014Z,92.30
2019-01-20T11:10:09.105Z,92.40
2019-01-20T11:12:57.030Z,92.50
2019-01-20T11:15:45.038Z,92.70
2019-01-20T11:18:32.956Z,92.70
2019-01-20T11:21:20.877Z,92.80
2019-01-20T11:24:08.886Z,92.40
2019-01-20T11:26:56.815Z,92.50
2019-01-20T11:29:44.734Z,92.20
2019-01-20T11:32:32.630Z,92.00
2019-01-20T11:35:20.553Z,92.10
2019-01-20T11:38:08.457Z,92.00
2019-01-20T11:40:56.374Z,92.00
2019-01-20T11:43:44.265Z,92.00
2019-01-20T11:46:32.177Z,92.00
2019-01-20T11:49:20.085Z,92.20
2019-01-20T11:52:08.008Z,92.40
2019-01-20T11:54:55.940Z,92.20
2019-01-20T12:00:29.843Z,92.00
2019-01-20T12:03:17.757Z,91.90
2019-01-20T12:06:05.641Z,92.20
2019-01-20T12:08:53.564Z,91.80
2019-01-20T12:11:41.794Z,91.60
2019-01-20T12:14:29.814Z,91.50
2019-01-20T12:17:17.702Z,91.60
2019-01-20T12:20:05.850Z,91.60
2019-01-20T12:22:53.743Z,92.00
2019-01-20T12:25:41.691Z,92.20
2019-01-20T12:28:29.582Z,92.10
2019-01-20T12:31:17.557Z,91.90
2019-01-20T12:34:05.451Z,92.10
2019-01-20T12:36:53.381Z,92.10
2019-01-20T12:39:41.340Z,92.10
2019-01-20T12:42:29.267Z,91.70
2019-01-20T12:45:17.161Z,91.60
2019-01-20T12:48:05.220Z,91.80
2019-01-20T12:50:53.113Z,91.60
2019-01-20T12:53:41.041Z,91.70
2019-01-20T12:59:36.043Z,91.80
2019-01-20T13:02:17.189Z,91.80
2019-01-20T13:05:05.172Z,91.80
2019-01-20T13:07:53.213Z,92.00
2019-01-20T13:10:41.138Z,91.60
2019-01-20T13:13:29.050Z,92.30
2019-01-20T13:16:16.974Z,92.40
2019-01-20T13:19:04.877Z,92.30
2019-01-20T13:21:52.791Z,92.30
2019-01-20T13:24:40.973Z,92.60
2019-01-20T13:27:28.925Z,92.70
2019-01-20T13:30:17.706Z,92.90
2019-01-20T13:33:05.649Z,92.70
2019-01-20T13:35:53.554Z,92.60
2019-01-20T13:38:41.473Z,92.30
2019-01-20T13:41:30.270Z,92.50
2019-01-20T13:44:18.195Z,91.90
2019-01-20T13:47:06.102Z,91.70
2019-01-20T13:49:54.045Z,91.70
2019-01-20T13:52:41.937Z,91.90
2019-01-20T13:55:29.862Z,91.90
2019-01-20T13:58:17.749Z,91.80
2019-01-20T14:01:05.675Z,92.00
2019-01-20T14:03:44.357Z,92.00
2019-01-20T14:06:32.273Z,91.60
2019-01-20T14:09:20.176Z,91.80
2019-01-20T14:12:08.109Z,91.80
2019-01-20T14:14:56.011Z,91.90
2019-01-20T14:17:43.961Z,92.00
2019-01-20T14:20:31.853Z,92.00
2019-01-20T14:23:19.784Z,92.30
2019-01-20T14:26:07.673Z,92.10
2019-01-20T14:28:55.593Z,92.20
2019-01-20T14:31:43.489Z,92.30
2019-01-20T14:34:31.410Z,92.40
2019-01-20T14:37:19.306Z,92.00
2019-01-20T14:40:08.042Z,92.00
2019-01-20T14:42:55.941Z,92.20
2019-01-20T14:45:43.861Z,91.80
2019-01-20T14:48:32.217Z,91.50
2019-01-20T14:51:21.426Z,91.40
2019-01-20T14:54:09.318Z,91.50
2019-01-20T14:56:57.593Z,91.50
2019-01-20T14:59:45.494Z,91.50
2019-01-20T15:02:33.410Z,91.50
2019-01-20T15:05:13.828Z,91.90
2019-01-20T15:07:52.459Z,91.90
2019-01-20T15:10:40.413Z,91.80
2019-01-20T15:13:28.341Z,91.80
2019-01-20T15:16:16.294Z,91.90
2019-01-20T15:19:04.209Z,91.80
2019-01-20T15:21:52.105Z,91.90
2019-01-20T15:27:33.601Z,92.00
2019-01-20T15:33:36.864Z,91.80
2019-01-20T15:36:24.798Z,91.90
2019-01-20T15:39:12.724Z,92.00
2019-01-20T15:42:00.622Z,92.10
2019-01-20T15:44:48.560Z,92.20
2019-01-20T15:47:36.446Z,92.40
2019-01-20T15:50:25.565Z,92.40
2019-01-20T15:53:13.502Z,92.60
2019-01-20T15:56:01.505Z,92.80
2019-01-20T15:58:49.597Z,92.40
2019-01-20T16:01:37.587Z,92.50
2019-01-20T16:04:25.796Z,92.70
2019-01-20T16:07:06.402Z,92.40
2019-01-20T16:09:45.346Z,92.50
2019-01-20T16:12:33.274Z,93.00
2019-01-20T16:15:24.589Z,92.80
2019-01-20T16:18:14.375Z,92.90
2019-01-20T16:21:01.423Z,92.90
2019-01-20T16:23:49.329Z,92.90
2019-01-20T16:26:37.221Z,92.90
2019-01-20T16:29:25.178Z,93.00
2019-01-20T16:32:13.074Z,92.90
2019-01-20T16:35:00.999Z,92.90
2019-01-20T16:37:48.923Z,92.80
2019-01-20T16:40:36.836Z,92.80
2019-01-20T16:43:24.725Z,92.80
2019-01-20T16:46:12.637Z,92.80
2019-01-20T16:49:00.529Z,93.00
2019-01-20T16:51:48.449Z,93.00
2019-01-20T16:54:36.342Z,93.10
2019-01-20T16:57:24.268Z,93.10
2019-01-20T17:00:13.787Z,93.30
2019-01-20T17:03:01.709Z,92.70
2019-01-20T17:05:49.856Z,92.80
2019-01-20T17:08:37.805Z,92.60
2019-01-20T17:11:25.693Z,92.70
2019-01-20T17:14:13.605Z,92.80
2019-01-20T17:17:01.530Z,92.70
2019-01-20T17:19:49.454Z,92.70
2019-01-20T17:22:18.396Z,92.70
2019-01-20T17:25:06.785Z,92.70
2019-01-20T17:27:54.681Z,92.70
2019-01-20T17:30:42.607Z,92.50
2019-01-20T17:33:30.506Z,92.30
2019-01-20T17:36:18.426Z,92.10
2019-01-20T17:39:11.901Z,92.10
2019-01-20T17:44:51.614Z,92.20
2019-01-20T17:47:39.537Z,92.20
2019-01-20T17:50:28.557Z,92.10
2019-01-20T17:53:16.475Z,92.10
2019-01-20T17:56:04.375Z,92.20
2019-01-20T17:58:52.310Z,92.40
2019-01-20T18:01:40.208Z,92.50
2019-01-20T18:04:28.157Z,92.50
2019-01-20T18:07:16.050Z,92.50
2019-01-20T18:09:56.634Z,92.50
2019-01-20T18:12:35.060Z,92.50
2019-01-20T18:15:22.998Z,92.50
2019-01-20T18:18:10.898Z,92.50
2019-01-20T18:20:58.806Z,92.30
2019-01-20T18:23:46.694Z,92.40
2019-01-20T18:26:34.609Z,92.30
2019-01-20T18:29:22.503Z,92.30
2019-01-20T18:32:10.430Z,92.30
2019-01-20T18:34:58.322Z,92.40
2019-01-20T18:37:46.256Z,92.20
2019-01-20T18:40:34.517Z,92.50
2019-01-20T18:43:22.454Z,92.50
2019-01-20T18:45:51.125Z,92.40
2019-01-20T18:48:39.050Z,92.40
2019-01-20T18:51:26.946Z,92.40
2019-01-20T18:54:14.862Z,92.50
2019-01-20T18:57:02.758Z,92.50
2019-01-20T18:59:50.673Z,92.60
2019-01-20T19:02:38.571Z,92.30
2019-01-20T19:05:26.498Z,92.50
2019-01-20T19:08:14.381Z,92.60
2019-01-20T19:11:02.417Z,92.70
2019-01-20T19:13:50.297Z,92.40
2019-01-20T19:16:38.213Z,92.50
2019-01-20T19:19:26.114Z,92.40
2019-01-20T19:22:14.968Z,92.30
2019-01-20T19:25:03.708Z,92.30
2019-01-20T19:27:51.879Z,92.40
2019-01-20T19:30:39.765Z,92.20
2019-01-20T19:33:27.679Z,92.50
2019-01-20T19:36:15.569Z,92.50
2019-01-20T19:42:17.894Z,92.40
2019-01-20T19:45:06.390Z,92.50
2019-01-20T19:47:54.313Z,92.40
2019-01-20T19:53:49.241Z,92.50
2019-01-20T19:56:37.142Z,92.40
2019-01-20T19:59:25.077Z,92.40
2019-01-20T20:02:12.969Z,92.50
2019-01-20T20:05:01.166Z,92.20
2019-01-20T20:07:49.322Z,92.30
2019-01-20T20:10:37.242Z,92.20
2019-01-20T20:13:15.818Z,92.30
2019-01-20T20:16:04.025Z,92.20
2019-01-20T20:18:51.904Z,92.00
2019-01-20T20:21:39.830Z,92.10
2019-01-20T20:24:27.722Z,92.00
2019-01-20T20:27:15.639Z,92.10
2019-01-20T20:30:04.061Z,92.10
2019-01-20T20:32:51.977Z,92.00
2019-01-20T20:35:40.169Z,92.40
2019-01-20T20:38:28.085Z,92.30
2019-01-20T20:41:15.978Z,92.30
2019-01-20T20:44:03.919Z,92.40
2019-01-20T20:46:51.827Z,92.20
2019-01-20T20:49:40.002Z,92.20
2019-01-20T20:52:27.871Z,92.20
2019-01-20T20:54:56.531Z,92.00
2019-01-20T20:57:44.446Z,92.00
2019-01-20T21:00:36.528Z,91.90
2019-01-20T21:03:43.729Z,91.90
2019-01-20T21:06:31.686Z,92.20
2019-01-20T21:09:19.653Z,91.80
2019-01-20T21:12:07.570Z,92.10
2019-01-20T21:14:46.407Z,92.10
2019-01-20T21:17:34.597Z,92.20
2019-01-20T21:20:22.515Z,92.50
2019-01-20T21:23:12.277Z,92.50
2019-01-20T21:26:00.145Z,92.50
2019-01-20T21:31:41.582Z,92.30
2019-01-20T21:34:29.502Z,92.40
2019-01-20T21:37:17.611Z,92.50
2019-01-20T21:40:05.633Z,92.80
2019-01-20T21:42:53.675Z,92.80
2019-01-20T21:45:41.590Z,92.90
2019-01-20T21:48:29.486Z,92.70
2019-01-20T21:51:17.401Z,92.70
2019-01-20T21:57:12.374Z,92.90
2019-01-20T22:00:00.262Z,92.80
2019-01-20T22:02:48.269Z,92.80
2019-01-20T22:05:36.153Z,92.80
2019-01-20T22:08:24.079Z,92.80
2019-01-20T22:11:11.969Z,92.70
2019-01-20T22:13:59.908Z,93.00
2019-01-20T22:16:40.514Z,92.90
2019-01-20T22:19:21.134Z,93.00
2019-01-20T22:21:59.621Z,93.00
2019-01-20T22:24:47.540Z,93.40
2019-01-20T22:27:35.435Z,93.30
2019-01-20T22:30:24.430Z,93.30
2019-01-20T22:33:12.323Z,93.30
2019-01-20T22:36:00.241Z,93.50
2019-01-20T22:38:48.127Z,93.40
2019-01-20T22:41:36.043Z,93.50
2019-01-20T22:44:23.938Z,93.70
2019-01-20T22:47:11.857Z,93.70
2019-01-20T22:49:59.746Z,93.70
2019-01-20T22:52:47.663Z,93.70
2019-01-20T22:55:35.562Z,93.90
2019-01-20T22:58:23.474Z,94.10
